New Castle Airport
KILG : now visible

Airfield :











YOU CAN JOIN US ON...

 
LOGIN :

Register | Disclaimer

   EN    FR    IT 

 









Legend :    VFR   Marginal VFR   IFR   Intensive IFR   Very Intensive IFR
Visi :
Ceiling :
>= 8 km
>= 3000ft
5 to 8 km
1000 to 3000 ft
1500m to 5 km
500 to 1000 ft
800 to 1500m
200 to 500 ft
< 800m
< 200 ft
Symbols :   Thunderstorms  Fog  Heavy snow  Heavy precipitations  Wind > 20 kt






- Airport Elevation : 80 ft
- IATA code : ILG


KILG - New Castle

CURRENT METAR :
  • 251109Z AUTO 07014G20KT 2 1/2SM +RA BR OVC009 08/07 A2994 RMK AO2 CIG 007V011 P0010 T00830067 $

EXPIRED METARs :
  • 251051Z 06012G20KT 4SM RA BR OVC009 08/07 A2993 RMK AO2 CIG 007V011 SLP135 P0013 T00830067 $
  • 250951Z 06012KT 9SM -RA OVC011 07/05 A2996 RMK AO2 SLP146 P0005 T00670050 $
  • 250851Z 06011KT 10SM -RA OVC013 07/04 A3001 RMK AO2 RAB48 SLP162 P0000 60000 T00670039 56037 $

TAF KILG
Valid from the 25 at 11:00 until the 26 at 06:00 UTC


251110Z 2511/2606 07013G20KT 4SM RA OVC010 WS020/12045KT
TEMPO 2511/2514 2SM +RA BR OVC005
FM251400 08013KT 1SM +RA OVC005 WS020/12045KT
FM252000 23010KT 5SM -RA BKN012
FM252300 27008KT P6SM BKN025
FM260100 29007KT P6SM BKN060



MET'MAP, your aeronautical weather chart ! - Copyright ORBIFLY December 2007 - Disclaimer

ORBIFLY MET'MAP TEAM :

Programming & Development : Alexandra Zaïnal
Concept & original design : Baudouin d'Aumeries
Assistance for programming : Marc-Olivier Méhu
Technical & hardware support : Manuel Goepfert

Contact : metmap@orbifly.com




SOURCES & CREDITS :

   NOAA       Earth
Advisory